Time;durP1;ratioP1;P1;durP2;ratioP2;P2;SDS_P1;SDS_P2;PMS_P1;PMS_P2;Temp;Humidity;BMP_temperature;BMP_pressure;BME280_temperature;BME280_humidity;BME280_pressure;Samples;Min_cycle;Max_cycle;Signal;HPM_P1;HPM_P2
2022/11/26 00:02:28;;;;;;;44.22;20.98;;;;;;;3.61;100.00;102558.94;5032676;28;20033;-82
2022/11/26 00:04:54;;;;;;;38.80;19.95;;;;;;;3.64;100.00;102571.72;5015105;28;20116;-83
2022/11/26 00:07:24;;;;;;;39.42;19.80;;;;;;;3.69;100.00;102587.84;5015145;28;20018;-84
2022/11/26 00:09:50;;;;;;;41.75;21.38;;;;;;;3.71;100.00;102599.75;5032985;28;20022;-82
2022/11/26 00:12:15;;;;;;;40.67;20.13;;;;;;;3.66;100.00;102604.03;5084654;23;20107;-81
2022/11/26 00:14:41;;;;;;;42.78;19.20;;;;;;;3.59;100.00;102602.38;5032626;28;20049;-83
2022/11/26 00:17:10;;;;;;;37.92;20.35;;;;;;;3.38;100.00;102571.84;5158335;23;20058;-83
2022/11/26 00:19:35;;;;;;;42.60;20.17;;;;;;;3.59;100.00;102615.16;5012787;28;20033;-82
2022/11/26 00:22:01;;;;;;;39.67;19.70;;;;;;;3.54;100.00;102614.34;5013127;28;20022;-83
2022/11/26 00:24:28;;;;;;;41.58;20.17;;;;;;;3.39;100.00;102584.59;5012988;28;20500;-84
2022/11/26 00:26:55;;;;;;;38.55;20.30;;;;;;;3.55;100.00;102621.13;5013051;28;20029;-83
2022/11/26 00:29:21;;;;;;;44.80;20.55;;;;;;;3.38;100.00;102594.81;5012774;28;20485;-83
2022/11/26 00:31:46;;;;;;;38.80;20.75;;;;;;;3.55;100.00;102621.13;5012686;28;20029;-83
2022/11/26 00:34:11;;;;;;;46.00;21.08;;;;;;;3.40;100.00;102598.22;5012730;28;20033;-83
2022/11/26 00:36:37;;;;;;;41.65;20.42;;;;;;;3.35;100.00;102594.84;5012588;28;20100;-84
2022/11/26 00:39:10;;;;;;;34.65;19.60;;;;;;;3.35;100.00;102602.50;5016164;28;20474;-84
2022/11/26 00:41:37;;;;;;;39.33;20.15;;;;;;;3.38;100.00;102611.00;5016280;28;20040;-83
2022/11/26 00:44:03;;;;;;;40.05;18.58;;;;;;;3.37;100.00;102626.31;5016364;28;20029;-84
2022/11/26 00:46:29;;;;;;;39.72;19.65;;;;;;;3.29;100.00;102617.84;5016230;28;20034;-84
2022/11/26 00:48:55;;;;;;;42.80;20.25;;;;;;;3.29;100.00;102617.84;4998400;28;20085;-83
2022/11/26 00:51:27;;;;;;;36.58;19.92;;;;;;;3.27;100.00;102617.00;5016073;28;20540;-83
2022/11/26 00:53:55;;;;;;;39.10;21.67;;;;;;;3.20;100.00;102618.72;5016240;28;20033;-83
2022/11/26 00:56:21;;;;;;;37.97;19.92;;;;;;;3.06;100.00;102593.25;5016126;28;20021;-84
2022/11/26 00:58:48;;;;;;;47.03;22.63;;;;;;;2.89;100.00;102561.84;5016131;28;20022;-83
2022/11/26 01:01:20;;;;;;;41.50;21.00;;;;;;;3.07;100.00;102602.63;5016051;28;20105;-83
2022/11/26 01:03:46;;;;;;;40.85;21.05;;;;;;;3.24;100.00;102628.06;5015481;28;20029;-82
2022/11/26 01:06:16;;;;;;;36.28;20.50;;;;;;;3.25;100.00;102623.84;5016182;28;20026;-82
2022/11/26 01:08:42;;;;;;;37.22;20.48;;;;;;;3.22;100.00;102627.22;5016054;28;20018;-84
2022/11/26 01:11:12;;;;;;;45.80;20.52;;;;;;;2.96;100.00;102576.28;5015656;28;20393;-84
2022/11/26 01:13:37;;;;;;;37.53;20.25;;;;;;;3.19;100.00;102622.13;5015756;28;20552;-84
2022/11/26 01:16:14;;;;;;;40.97;20.83;;;;;;;2.88;100.00;102580.56;5015784;28;20139;-82
2022/11/26 01:18:39;;;;;;;36.25;20.60;;;;;;;3.09;100.00;102613.66;5015402;28;20073;-81
2022/11/26 01:21:04;;;;;;;44.13;21.85;;;;;;;3.12;100.00;102621.31;5015704;28;20504;-83
2022/11/26 01:23:30;;;;;;;47.40;19.88;;;;;;;3.14;100.00;102616.19;5015776;28;20054;-83
2022/11/26 01:25:55;;;;;;;39.97;21.30;;;;;;;3.16;100.00;102625.56;4997790;28;20034;-83
2022/11/26 01:28:20;;;;;;;44.58;21.60;;;;;;;3.08;100.00;102619.63;5015445;28;20512;-83
2022/11/26 01:30:46;;;;;;;39.63;20.73;;;;;;;2.80;100.00;102589.94;5015310;28;20030;-84
2022/11/26 01:33:11;;;;;;;38.33;19.48;;;;;;;3.03;100.00;102630.69;5014992;28;20110;-83
2022/11/26 01:35:37;;;;;;;43.47;19.45;;;;;;;2.95;100.00;102628.19;5015697;28;20029;-83
2022/11/26 01:38:03;;;;;;;36.50;18.63;;;;;;;2.76;100.00;102606.09;5015460;28;20049;-83
2022/11/26 01:40:41;;;;;;;35.17;19.08;;;;;;;2.84;100.00;102620.53;5015464;28;20037;-84
2022/11/26 01:43:16;;;;;;;30.95;18.27;;;;;;;2.83;100.00;102630.72;5015372;28;20026;-84
2022/11/26 01:45:41;;;;;;;33.95;18.40;;;;;;;2.73;100.00;102636.69;5015043;28;20373;-84
2022/11/26 01:48:32;;;;;;;31.63;17.52;;;;;;;2.57;100.00;102620.59;5014603;28;20022;-83
2022/11/26 01:51:00;;;;;;;27.63;15.07;;;;;;;2.59;100.00;102639.28;4998540;28;20033;-84
2022/11/26 01:53:31;;;;;;;28.00;15.65;;;;;;;2.52;100.00;102651.19;5015209;28;20112;-85
2022/11/26 01:56:00;;;;;;;29.15;16.10;;;;;;;2.27;100.00;102619.75;5015006;28;20096;-83
2022/11/26 01:58:38;;;;;;;29.13;15.65;;;;;;;2.32;100.00;102635.03;5014845;28;20026;-83
2022/11/26 02:01:03;;;;;;;31.55;16.45;;;;;;;2.15;100.00;102614.63;5024250;23;20057;-84
2022/11/26 02:03:33;;;;;;;27.75;15.07;;;;;;;2.32;100.00;102650.34;5016206;28;20037;-84
2022/11/26 02:06:10;;;;;;;32.22;16.80;;;;;;;2.29;100.00;102647.78;5034587;28;20025;-83
2022/11/26 02:08:36;;;;;;;31.77;16.95;;;;;;;2.20;100.00;102637.59;5034451;28;20108;-82
2022/11/26 02:11:14;;;;;;;40.35;19.75;;;;;;;2.24;100.00;102639.28;5034415;28;20041;-84
2022/11/26 02:13:40;;;;;;;32.03;18.75;;;;;;;2.38;100.00;102659.69;5034421;28;20029;-83
2022/11/26 02:16:37;;;;;;;37.47;19.33;;;;;;;2.40;100.00;102653.75;5034417;28;20026;-83
2022/11/26 02:19:21;;;;;;;42.50;20.33;;;;;;;2.45;100.00;102662.22;5034089;28;20021;-84
2022/11/26 02:21:55;;;;;;;40.45;20.33;;;;;;;2.50;100.00;102665.63;5048913;23;20141;-85
2022/11/26 02:24:24;;;;;;;45.58;20.60;;;;;;;2.58;100.00;102668.19;4994753;28;20464;-84
2022/11/26 02:26:58;;;;;;;47.70;21.73;;;;;;;2.64;100.00;102677.53;4994728;28;20085;-82
2022/11/26 02:29:39;;;;;;;51.40;24.13;;;;;;;2.69;100.00;102675.84;4994706;28;20589;-84
2022/11/26 02:32:16;;;;;;;50.00;23.00;;;;;;;2.70;100.00;102674.97;4994333;28;20035;-84
2022/11/26 02:34:55;;;;;;;45.92;23.35;;;;;;;2.74;100.00;102669.84;4994654;28;20028;-81
2022/11/26 02:43:08;;;;;;;;;;;;;;;2.86;100.00;102669.03;5195381;23;20063;-82
2022/11/26 02:45:37;;;;;;;50.53;23.20;;;;;;;2.88;100.00;102673.25;5033773;28;20287;-85
2022/11/26 02:48:07;;;;;;;47.83;24.95;;;;;;;2.66;100.00;102629.94;5033875;28;20501;-84
2022/11/26 02:50:47;;;;;;;52.75;24.65;;;;;;;2.88;100.00;102677.53;5033244;28;20389;-83
2022/11/26 02:53:15;;;;;;;52.03;23.83;;;;;;;2.83;100.00;102674.09;5033612;28;20026;-81
2022/11/26 02:55:48;;;;;;;44.47;24.40;;;;;;;2.54;100.00;102631.63;5033177;28;20026;-81
2022/11/26 02:58:14;;;;;;;47.47;22.98;;;;;;;2.74;100.00;102666.47;5033768;28;20026;-83
2022/11/26 03:00:41;;;;;;;51.67;23.45;;;;;;;2.53;100.00;102634.19;5033443;28;20432;-84
2022/11/26 03:03:22;;;;;;;48.20;24.60;;;;;;;2.83;100.00;102677.50;5033672;28;20025;-83
2022/11/26 03:05:52;;;;;;;48.88;22.77;;;;;;;2.56;100.00;102632.50;5033316;28;20029;-87
2022/11/26 03:08:18;;;;;;;46.63;23.95;;;;;;;2.88;100.00;102680.91;5033645;28;20124;-84
2022/11/26 03:10:43;;;;;;;54.35;23.77;;;;;;;2.71;100.00;102661.38;5033099;28;20100;-84
2022/11/26 03:13:09;;;;;;;48.10;24.38;;;;;;;2.91;100.00;102691.97;5015095;28;20034;-82
2022/11/26 03:15:34;;;;;;;47.53;24.60;;;;;;;2.94;100.00;102700.44;5033124;28;20029;-83
2022/11/26 03:17:59;;;;;;;47.67;25.00;;;;;;;2.54;100.00;102639.28;5033365;28;20022;-84
2022/11/26 03:52:38;;;;;;;49.13;23.98;;;;;;;2.90;100.00;102711.53;5819857;23;20052;-84
2022/11/26 03:55:04;;;;;;;45.40;23.75;;;;;;;2.58;100.00;102666.50;5015905;28;20556;-84
2022/11/26 03:57:29;;;;;;;47.60;24.83;;;;;;;2.73;100.00;102703.03;5013338;28;20022;-84
2022/11/26 03:59:55;;;;;;;54.55;23.92;;;;;;;2.83;100.00;102722.59;5013304;28;20030;-83
2022/11/26 04:02:20;;;;;;;50.33;23.90;;;;;;;2.69;100.00;102693.69;5013096;28;20482;-83
2022/11/26 04:04:45;;;;;;;45.40;22.25;;;;;;;2.80;100.00;102726.00;5013026;28;20057;-84
2022/11/26 04:07:13;;;;;;;48.60;23.63;;;;;;;2.77;100.00;102720.91;5012905;28;20068;-83
2022/11/26 04:09:39;;;;;;;50.67;23.63;;;;;;;2.77;100.00;102728.56;5012887;28;20482;-84
2022/11/26 04:12:04;;;;;;;45.30;23.88;;;;;;;2.76;100.00;102724.31;5013524;28;20133;-84
2022/11/26 04:14:29;;;;;;;46.88;23.10;;;;;;;2.64;100.00;102714.09;5016934;28;20033;-85
2022/11/26 04:16:55;;;;;;;44.22;23.60;;;;;;;2.39;100.00;102677.53;5016784;28;20160;-83
2022/11/26 04:19:25;;;;;;;52.53;22.92;;;;;;;2.59;100.00;102710.69;5016626;28;20132;-83
2022/11/26 04:21:50;;;;;;;53.42;23.10;;;;;;;2.79;100.00;102748.97;5016686;28;20484;-83
2022/11/26 04:24:15;;;;;;;53.08;23.50;;;;;;;2.75;100.00;102744.69;5016591;28;20157;-83
2022/11/26 04:26:47;;;;;;;47.05;22.50;;;;;;;2.06;100.00;102627.34;5016602;28;20381;-83
2022/11/26 04:29:12;;;;;;;49.25;22.90;;;;;;;2.76;100.00;102751.53;5016780;28;20362;-84
2022/11/26 04:31:37;;;;;;;54.17;23.00;;;;;;;1.75;100.00;102582.31;5016411;28;20036;-82
2022/11/26 04:34:28;;;;;;;41.15;22.70;;;;;;;2.74;100.00;102748.09;5016741;28;20037;-83
2022/11/26 04:36:53;;;;;;;50.05;22.88;;;;;;;1.85;100.00;102606.94;5016289;28;20030;-84
2022/11/26 04:39:37;;;;;;;49.83;22.13;;;;;;;1.41;100.00;102532.19;5016226;28;20079;-83
2022/11/26 04:42:02;;;;;;;44.10;22.40;;;;;;;2.64;100.00;102739.59;5016282;28;20033;-83
2022/11/26 04:44:27;;;;;;;43.38;21.77;;;;;;;2.39;100.00;102705.59;5016265;28;20470;-83
2022/11/26 04:49:55;;;;;;;47.25;20.83;;;;;;;1.20;100.00;102519.41;5016432;28;20056;-84
2022/11/26 04:52:21;;;;;;;48.08;22.35;;;;;;;1.24;100.00;102516.00;5015932;28;20480;-83
2022/11/26 04:54:46;;;;;;;48.17;21.55;;;;;;;2.15;100.00;102672.41;5015343;28;20050;-82
2022/11/26 04:57:27;;;;;;;51.13;21.77;;;;;;;2.35;100.00;102718.31;5001321;28;20117;-83
2022/11/26 04:59:52;;;;;;;48.47;22.25;;;;;;;2.65;100.00;102756.59;4996568;28;20489;-83
2022/11/26 05:02:26;;;;;;;42.03;21.70;;;;;;;2.66;100.00;102752.38;4996435;28;20027;-83
2022/11/26 05:05:38;;;;;;;44.88;21.08;;;;;;;2.60;100.00;102758.31;4996185;28;20026;-84
2022/11/26 05:08:15;;;;;;;42.80;20.83;;;;;;;1.28;100.00;102555.03;4996242;28;20109;-82
2022/11/26 05:10:41;;;;;;;45.67;20.27;;;;;;;2.47;100.00;102765.09;5002504;23;20074;-82
2022/11/26 05:13:06;;;;;;;39.05;19.80;;;;;;;2.39;100.00;102755.72;4996152;28;20069;-83
2022/11/26 05:15:31;;;;;;;35.72;18.83;;;;;;;2.21;100.00;102743.78;4996214;28;20540;-83
2022/11/26 05:17:57;;;;;;;46.55;20.73;;;;;;;2.30;100.00;102771.84;4996112;28;20497;-83
2022/11/26 05:20:28;;;;;;;44.38;19.20;;;;;;;2.33;100.00;102771.84;4995890;28;20026;-82
2022/11/26 05:22:53;;;;;;;41.05;18.85;;;;;;;2.24;100.00;102764.16;4995855;28;20050;-83
2022/11/26 05:25:18;;;;;;;38.25;18.48;;;;;;;2.28;100.00;102773.53;4994550;28;20105;-82
2022/11/26 05:30:09;;;;;;;50.97;20.25;;;;;;;1.25;100.00;102599.16;5021538;23;20050;-81
2022/11/26 05:32:37;;;;;;;42.65;19.52;;;;;;;1.40;100.00;102622.13;5015095;28;20641;-81
2022/11/26 05:35:03;;;;;;;47.53;20.35;;;;;;;2.30;100.00;102774.41;5015448;28;20036;-82
2022/11/26 05:37:28;;;;;;;48.85;18.92;;;;;;;2.05;100.00;102736.94;5015450;28;20104;-84
2022/11/26 05:39:54;;;;;;;46.97;19.67;;;;;;;2.27;100.00;102782.03;5015566;28;20026;-81
2022/11/26 05:42:19;;;;;;;44.38;19.27;;;;;;;2.28;100.00;102773.53;5015399;28;20056;-82
2022/11/26 05:44:44;;;;;;;48.90;18.75;;;;;;;2.27;100.00;102771.84;5015513;28;20037;-82
2022/11/26 05:47:09;;;;;;;39.63;19.70;;;;;;;2.21;100.00;102770.13;5015084;28;20073;-82
2022/11/26 05:49:35;;;;;;;42.97;19.58;;;;;;;2.26;100.00;102788.84;5015184;28;20525;-82
2022/11/26 05:52:00;;;;;;;42.90;19.83;;;;;;;2.25;100.00;102781.16;5014918;28;20030;-83
2022/11/26 05:54:25;;;;;;;46.28;19.92;;;;;;;2.14;100.00;102768.38;5014786;28;20046;-82
2022/11/26 05:56:51;;;;;;;44.72;19.80;;;;;;;2.19;100.00;102770.97;5013775;28;20025;-82
2022/11/26 05:59:19;;;;;;;44.90;20.58;;;;;;;1.91;100.00;102734.34;5014694;28;20057;-83
2022/11/26 06:07:09;;;;;;;44.53;19.25;;;;;;;1.63;100.00;102711.31;5283220;23;20116;-83
2022/11/26 06:09:41;;;;;;;43.95;19.70;;;;;;;2.14;100.00;102793.03;5013061;28;20112;-81
2022/11/26 06:12:06;;;;;;;;;;;;;;;2.21;100.00;102817.69;5014802;28;20030;-82
2022/11/26 06:14:32;;;;;;;46.38;19.55;;;;;;;2.28;100.00;102819.44;5013236;28;20069;-82
2022/11/26 06:16:57;;;;;;;43.80;19.55;;;;;;;2.26;100.00;102813.44;5014368;28;20540;-82
2022/11/26 06:19:23;;;;;;;46.90;19.65;;;;;;;2.20;100.00;102804.09;5014502;28;20065;-83
2022/11/26 06:21:48;;;;;;;47.95;19.98;;;;;;;2.18;100.00;102805.81;5012775;28;20045;-83
2022/11/26 06:24:13;;;;;;;44.88;20.67;;;;;;;2.08;100.00;102786.22;5014356;28;20105;-84
2022/11/26 06:26:39;;;;;;;47.80;20.58;;;;;;;2.20;100.00;102819.41;5014576;28;20021;-82
2022/11/26 06:29:04;;;;;;;53.88;20.02;;;;;;;2.19;100.00;102812.59;5014423;28;20075;-82
2022/11/26 06:31:31;;;;;;;47.92;18.77;;;;;;;2.06;100.00;102789.59;5014241;28;20444;-82
2022/11/26 06:33:59;;;;;;;40.53;19.60;;;;;;;1.69;100.00;102741.06;5014348;28;20029;-83
2022/11/26 06:36:24;;;;;;;46.50;18.98;;;;;;;2.20;100.00;102821.09;5013895;28;20033;-82
2022/11/26 06:38:50;;;;;;;43.60;19.00;;;;;;;2.20;100.00;102816.00;5014141;28;20028;-82
2022/11/26 06:41:15;;;;;;;37.55;18.70;;;;;;;1.95;100.00;102782.75;5014327;28;20477;-83
2022/11/26 06:43:41;;;;;;;45.72;18.75;;;;;;;2.10;100.00;102806.63;5014009;28;20040;-84
2022/11/26 06:46:08;;;;;;;43.38;19.40;;;;;;;2.14;100.00;102827.00;5012205;28;20041;-82
2022/11/26 06:48:35;;;;;;;39.75;17.75;;;;;;;1.96;100.00;102809.09;5014478;28;20429;-82
2022/11/26 06:51:08;;;;;;;46.17;17.73;;;;;;;2.07;100.00;102835.50;5012809;28;20477;-84
2022/11/26 06:53:34;;;;;;;38.45;16.95;;;;;;;2.06;100.00;102827.81;5013855;28;20038;-84
2022/11/26 06:56:05;;;;;;;42.67;17.48;;;;;;;2.04;100.00;102826.97;5014102;28;20032;-83
2022/11/26 06:58:32;;;;;;;34.33;16.70;;;;;;;1.97;100.00;102821.88;5013815;28;20036;-84
2022/11/26 07:00:57;;;;;;;40.55;17.83;;;;;;;2.04;100.00;102832.91;5013776;28;20026;-85
2022/11/26 07:03:24;;;;;;;37.10;16.42;;;;;;;1.66;100.00;102781.78;5013889;28;20096;-84
2022/11/26 07:05:49;;;;;;;34.03;15.77;;;;;;;2.00;100.00;102841.41;5013857;28;20045;-84
2022/11/26 07:08:15;;;;;;;42.10;17.20;;;;;;;2.03;100.00;102835.47;4995893;28;20580;-84
2022/11/26 07:10:40;;;;;;;42.85;16.42;;;;;;;2.11;100.00;102838.91;5013568;28;20033;-84
2022/11/26 07:13:06;;;;;;;44.95;18.23;;;;;;;1.81;100.00;102794.59;5013515;28;20026;-84
2022/11/26 07:15:31;;;;;;;41.88;16.85;;;;;;;2.18;100.00;102851.69;5013394;28;20071;-86
2022/11/26 07:18:07;;;;;;;43.13;17.55;;;;;;;2.22;100.00;102855.94;5013609;28;20465;-84
2022/11/26 07:20:34;;;;;;;49.50;17.65;;;;;;;2.20;100.00;102841.50;5013638;28;20060;-85
2022/11/26 07:23:01;;;;;;;52.50;18.88;;;;;;;2.11;100.00;102824.47;5013512;28;20458;-85
2022/11/26 07:25:28;;;;;;;43.75;18.13;;;;;;;2.11;100.00;102821.06;5013243;28;20473;-86
2022/11/26 07:27:54;;;;;;;48.28;18.58;;;;;;;2.40;100.00;102867.91;5013480;28;20029;-85
2022/11/26 07:30:22;;;;;;;42.95;18.88;;;;;;;2.27;100.00;102846.63;5013714;28;20038;-85
2022/11/26 07:32:47;;;;;;;46.47;17.48;;;;;;;2.46;100.00;102867.06;5013335;28;20022;-85
2022/11/26 07:35:12;;;;;;;43.60;17.67;;;;;;;2.46;100.00;102865.38;5013760;28;20041;-83
2022/11/26 07:37:40;;;;;;;46.20;18.33;;;;;;;2.48;100.00;102870.50;5013455;28;20030;-85
2022/11/26 07:40:06;;;;;;;53.15;18.35;;;;;;;2.34;100.00;102839.81;5013151;28;20109;-84
2022/11/26 07:42:32;;;;;;;48.97;18.02;;;;;;;2.35;100.00;102846.63;5013321;28;20102;-84
2022/11/26 07:44:58;;;;;;;41.38;17.65;;;;;;;2.52;100.00;102875.59;4995639;28;20029;-78
2022/11/26 07:47:24;;;;;;;47.67;18.75;;;;;;;2.35;100.00;102843.22;5014793;28;20018;-84
2022/11/26 07:49:49;;;;;;;46.35;19.33;;;;;;;2.54;100.00;102871.34;5017476;28;20048;-83
2022/11/26 07:52:14;;;;;;;46.65;18.65;;;;;;;2.56;100.00;102866.28;5017219;28;20062;-83
2022/11/26 07:54:40;;;;;;;52.92;19.75;;;;;;;2.50;100.00;102856.88;5016926;28;20026;-86
2022/11/26 07:57:10;;;;;;;51.50;20.35;;;;;;;2.68;100.00;102871.41;5017124;28;20037;-86
2022/11/26 08:00:08;;;;;;;50.40;20.83;;;;;;;1.68;100.00;102686.72;5015919;28;20377;-83
2022/11/26 08:02:33;;;;;;;56.20;22.60;;;;;;;2.79;100.00;102874.81;5009992;28;20440;-83
2022/11/26 08:04:59;;;;;;;47.08;22.23;;;;;;;2.74;100.00;102842.47;5017016;28;20038;-82
2022/11/26 08:07:24;;;;;;;49.20;23.00;;;;;;;2.92;100.00;102859.53;5016822;28;20172;-81
2022/11/26 08:09:49;;;;;;;55.88;21.92;;;;;;;2.82;100.00;102833.16;5016565;28;20026;-83
2022/11/26 08:12:15;;;;;;;58.67;23.23;;;;;;;2.86;100.00;102833.16;5016715;28;20126;-81
2022/11/26 08:14:40;;;;;;;56.55;22.10;;;;;;;3.19;100.00;102868.91;5016952;28;20104;-82
2022/11/26 08:17:05;;;;;;;53.22;22.25;;;;;;;3.27;100.00;102873.19;5017079;28;20076;-81
2022/11/26 08:19:30;;;;;;;55.03;22.95;;;;;;;3.31;100.00;102868.91;5015486;28;20473;-80
2022/11/26 08:21:56;;;;;;;57.17;23.42;;;;;;;3.42;100.00;102878.25;5016527;28;20026;-78
2022/11/26 08:24:22;;;;;;;60.70;24.80;;;;;;;3.38;100.00;102852.75;5017126;28;20033;-81
2022/11/26 08:26:48;;;;;;;61.67;25.30;;;;;;;3.34;100.00;102826.38;5016247;28;20403;-80
2022/11/26 08:29:13;;;;;;;60.63;24.55;;;;;;;3.68;100.00;102882.50;5016777;28;20046;-80
2022/11/26 08:31:42;;;;;;;57.85;25.50;;;;;;;3.75;100.00;102879.09;5016496;28;20037;-78
2022/11/26 08:34:10;;;;;;;59.22;25.25;;;;;;;3.82;100.00;102879.91;5016865;28;20033;-80
2022/11/26 08:36:35;;;;;;;53.13;24.77;;;;;;;3.87;100.00;102889.28;5016468;28;20022;-82
2022/11/26 08:39:00;;;;;;;53.65;24.85;;;;;;;3.85;100.00;102875.69;5016490;28;20037;-83
2022/11/26 08:44:10;;;;;;;55.25;24.52;;;;;;;2.91;100.00;102703.03;5584001;23;20095;-81
2022/11/26 08:47:06;;;;;;;51.70;25.02;;;;;;;4.11;100.00;102890.06;5036196;28;20028;-80
2022/11/26 08:49:32;;;;;;;56.17;24.05;;;;;;;4.08;100.00;102875.59;5034850;28;20377;-79
2022/11/26 08:55:19;;;;;;;;;;;;;;;4.28;100.00;102891.72;5034151;28;20091;-82
2022/11/26 08:57:46;;;;;;;57.75;24.58;;;;;;;4.27;100.00;102873.84;4997452;28;20375;-78
2022/11/26 09:00:11;;;;;;;63.88;24.52;;;;;;;4.39;100.00;102881.44;5015985;28;20026;-81
2022/11/26 09:02:37;;;;;;;49.63;23.70;;;;;;;3.87;100.00;102789.63;5015843;28;20026;-80
2022/11/26 09:05:02;;;;;;;47.40;24.05;;;;;;;4.42;100.00;102870.34;5016075;28;20161;-81
2022/11/26 09:07:28;;;;;;;53.88;24.08;;;;;;;4.47;100.00;102868.63;5016497;28;20073;-81
2022/11/26 09:09:53;;;;;;;50.58;23.88;;;;;;;4.58;100.00;102880.50;5016050;28;20424;-81
2022/11/26 09:12:18;;;;;;;47.42;23.17;;;;;;;4.72;100.00;102890.69;5015612;28;20033;-81
2022/11/26 09:14:44;;;;;;;50.30;23.77;;;;;;;4.79;100.00;102896.59;5015604;28;20026;-79
2022/11/26 09:17:10;;;;;;;49.28;22.40;;;;;;;4.59;100.00;102860.88;5015893;28;20116;-80
2022/11/26 09:19:36;;;;;;;48.25;22.80;;;;;;;4.89;100.00;102906.78;5015455;28;20033;-82
2022/11/26 09:22:02;;;;;;;52.05;22.80;;;;;;;4.97;100.00;102905.88;5015340;28;20026;-80
2022/11/26 09:24:27;;;;;;;49.58;21.90;;;;;;;4.77;100.00;102863.34;5015652;28;20563;-81
2022/11/26 09:26:52;;;;;;;47.03;21.63;;;;;;;5.11;100.00;102904.94;5015339;28;20053;-79
2022/11/26 09:29:20;;;;;;;44.80;20.13;;;;;;;5.05;100.00;102888.78;5015519;28;20058;-81
2022/11/26 09:31:47;;;;;;;43.40;21.17;;;;;;;4.93;100.00;102869.22;5015310;28;20026;-80
2022/11/26 09:34:12;;;;;;;43.75;20.65;;;;;;;4.86;100.00;102852.19;5015299;28;20026;-81
2022/11/26 09:36:38;;;;;;;41.78;21.42;;;;;;;5.32;100.00;102921.03;4997990;28;20125;-83
2022/11/26 09:39:04;;;;;;;46.30;19.38;;;;;;;5.16;100.00;102897.22;5015255;28;20053;-81
2022/11/26 09:41:41;;;;;;;38.85;18.98;;;;;;;5.35;100.00;102926.97;5015039;28;20025;-80
2022/11/26 09:44:28;;;;;;;38.03;18.52;;;;;;;5.38;100.00;102926.06;5015114;28;20057;-79
2022/11/26 09:47:09;;;;;;;41.88;18.55;;;;;;;5.46;100.00;102919.19;5014815;28;20270;-81
2022/11/26 09:49:41;;;;;;;41.80;18.90;;;;;;;5.49;100.00;102914.03;5015313;28;20034;-81
2022/11/26 09:52:10;;;;;;;35.38;18.15;;;;;;;5.53;100.00;102910.59;5015124;28;20342;-81
2022/11/26 09:54:37;;;;;;;40.83;19.13;;;;;;;5.62;100.00;102920.75;5015246;28;20038;-81
2022/11/26 09:57:32;;;;;;;38.42;19.00;;;;;;;5.72;100.00;102917.25;5014939;28;20112;-82
2022/11/26 09:59:57;;;;;;;50.85;19.85;;;;;;;5.79;100.00;102912.91;4973733;28;20074;-83
2022/11/26 10:02:24;;;;;;;40.88;18.45;;;;;;;5.83;100.00;102909.47;4974109;28;20073;-83
2022/11/26 10:04:50;;;;;;;40.53;17.92;;;;;;;5.87;100.00;102918.81;4973864;28;20035;-80
2022/11/26 10:07:33;;;;;;;40.92;18.05;;;;;;;5.90;100.00;102916.25;4973661;28;20037;-83
2022/11/26 10:10:01;;;;;;;35.60;17.40;;;;;;;5.93;100.00;102921.34;4972597;28;20041;-82
2022/11/26 10:12:48;;;;;;;40.53;18.98;;;;;;;5.98;100.00;102918.72;4973400;28;20087;-82
2022/11/26 10:15:16;;;;;;;35.72;17.58;;;;;;;6.01;100.00;102926.41;4973536;28;20050;-81
2022/11/26 10:18:02;;;;;;;41.17;18.20;;;;;;;6.06;100.00;102922.06;4957142;28;20115;-81
2022/11/26 10:21:00;;;;;;;37.05;16.42;;;;;;;6.11;100.00;102919.47;4957014;28;20427;-81
2022/11/26 10:24:01;;;;;;;35.38;16.30;;;;;;;6.15;100.00;102921.13;4973448;28;20047;-81
2022/11/26 10:26:34;;;;;;;34.35;16.25;;;;;;;4.76;100.00;102679.06;4916062;29;20040;-81
2022/11/26 10:29:09;;;;;;;34.20;16.27;;;;;;;5.82;100.00;102853.91;4915590;29;20082;-81
2022/11/26 10:31:35;;;;;;;37.13;15.70;;;;;;;6.26;100.00;102915.00;4915871;29;20044;-81
2022/11/26 10:34:11;;;;;;;30.95;14.50;;;;;;;6.15;100.00;102885.22;4915845;29;20575;-81
2022/11/26 10:36:43;;;;;;;37.17;16.33;;;;;;;6.35;100.00;102908.91;4916282;28;20048;-81
2022/11/26 10:39:15;;;;;;;36.67;15.45;;;;;;;5.54;100.00;102758.53;4899960;29;20036;-81
2022/11/26 10:41:40;;;;;;;32.53;15.65;;;;;;;6.18;100.00;102862.06;4915672;29;20032;-81
2022/11/26 10:44:38;;;;;;;32.40;14.85;;;;;;;6.45;100.00;102894.25;4915473;29;20530;-81
2022/11/26 10:47:33;;;;;;;31.52;14.40;;;;;;;6.43;100.00;102899.41;4917670;29;20042;-81
2022/11/26 10:50:01;;;;;;;33.10;14.95;;;;;;;6.39;100.00;102902.00;4896257;29;20120;-81
2022/11/26 10:52:30;;;;;;;35.15;14.85;;;;;;;6.33;100.00;102905.53;4896540;29;20100;-81
2022/11/26 10:55:09;;;;;;;32.08;14.40;;;;;;;6.33;100.00;102905.53;4880907;29;20037;-81
2022/11/26 10:57:39;;;;;;;35.40;15.05;;;;;;;5.54;100.00;102776.47;4896678;29;20603;-81
2022/11/26 11:00:05;;;;;;;36.15;14.88;;;;;;;5.51;100.00;102758.56;4896408;29;20067;-82
2022/11/26 11:02:39;;;;;;;31.30;14.98;;;;;;;6.35;100.00;102903.78;4905436;28;20033;-82
2022/11/26 11:05:08;;;;;;;31.25;14.52;;;;;;;6.35;100.00;102898.66;4972825;28;20389;-81
2022/11/26 11:07:34;;;;;;;35.97;14.63;;;;;;;6.37;100.00;102896.06;4956547;28;20154;-81
2022/11/26 11:10:08;;;;;;;34.47;13.73;;;;;;;6.38;100.00;102892.63;4972598;28;20584;-81
2022/11/26 11:12:40;;;;;;;34.20;14.75;;;;;;;5.71;100.00;102786.53;4972517;28;20027;-81
2022/11/26 11:15:39;;;;;;;29.73;13.85;;;;;;;6.27;100.00;102874.78;4972283;28;20038;-81
2022/11/26 11:18:11;;;;;;;28.58;13.73;;;;;;;6.42;100.00;102897.72;4972537;28;20027;-82
2022/11/26 11:20:39;;;;;;;37.22;14.35;;;;;;;6.45;100.00;102897.66;4956480;28;20531;-81
2022/11/26 11:23:10;;;;;;;38.88;14.77;;;;;;;6.47;100.00;102892.50;4972404;28;20038;-81
2022/11/26 11:25:39;;;;;;;35.30;14.85;;;;;;;6.32;100.00;102863.63;4983245;28;20037;-81
2022/11/26 11:28:17;;;;;;;36.95;15.20;;;;;;;5.96;100.00;102805.06;5015334;28;20026;-81
2022/11/26 11:30:44;;;;;;;32.95;14.57;;;;;;;6.59;100.00;102898.34;5033154;28;20461;-82
2022/11/26 11:33:19;;;;;;;41.13;15.65;;;;;;;6.63;100.00;102893.16;5033227;28;20445;-81
2022/11/26 11:35:58;;;;;;;34.72;14.98;;;;;;;6.59;100.00;102876.97;5033328;28;20439;-82
2022/11/26 11:38:26;;;;;;;35.00;14.57;;;;;;;6.70;100.00;102880.25;5033079;28;20026;-80
2022/11/26 11:40:52;;;;;;;31.25;14.55;;;;;;;6.68;100.00;102855.44;5033193;28;20026;-82
2022/11/26 11:43:21;;;;;;;33.55;15.35;;;;;;;6.71;100.00;102863.13;5015292;28;20136;-80
2022/11/26 11:46:12;;;;;;;39.80;15.23;;;;;;;6.92;100.00;102869.66;5032975;28;20033;-82
2022/11/26 11:49:10;;;;;;;35.47;15.57;;;;;;;7.06;100.00;102885.69;5032784;28;20025;-78
2022/11/26 11:51:49;;;;;;;34.17;14.00;;;;;;;7.13;100.00;102872.72;4971987;28;20396;-81
2022/11/26 11:54:26;;;;;;;34.80;14.40;;;;;;;7.21;100.00;102877.75;4972389;28;20050;-80
2022/11/26 11:57:03;;;;;;;31.60;13.77;;;;;;;7.12;100.00;102844.50;4972026;28;20047;-81
2022/11/26 11:59:57;;;;;;;37.33;14.05;;;;;;;7.37;100.00;102863.75;4989013;28;20109;-82
2022/11/26 12:03:07;;;;;;;34.63;13.00;;;;;;;7.10;100.00;102818.84;4991506;28;20046;-81
2022/11/26 12:05:41;;;;;;;35.53;11.93;;;;;;;7.30;100.00;102836.47;4991420;28;20128;-81
2022/11/26 12:08:24;;;;;;;30.73;11.52;;;;;;;7.53;100.00;102868.66;4991221;28;20426;-81
2022/11/26 12:11:08;;;;;;;27.15;10.70;;;;;;;7.55;100.00;102861.75;4991500;28;20027;-80
2022/11/26 12:13:47;;;;;;;29.33;10.80;;;;;;;7.32;100.00;102814.16;4991385;28;20367;-80
2022/11/26 12:16:13;;;;;;;32.05;9.90;;;;;;;7.61;100.00;102862.50;4991205;28;20201;-79
2022/11/26 12:19:01;;;;;;;26.00;9.88;;;;;;;7.52;100.00;102844.66;4991204;28;20371;-81